Time;durP1;ratioP1;P1;durP2;ratioP2;P2;SDS_P1;SDS_P2;PMS_P1;PMS_P2;Temp;Humidity;BMP_temperature;BMP_pressure;BME280_temperature;BME280_humidity;BME280_pressure;Samples;Min_cycle;Max_cycle;Signal;HPM_P1;HPM_P2
2022/05/06 00:05:25;;;;;;;62.70;58.43;;;;;;;11.99;100.00;102583.75;1927428;73;86013;-79
2022/05/06 00:11:09;;;;;;;62.03;57.63;;;;;;;11.74;100.00;102579.44;1977535;71;39568;-78
2022/05/06 00:16:53;;;;;;;62.80;58.50;;;;;;;12.01;100.00;102573.22;1881145;75;85923;-77
2022/05/06 00:22:37;;;;;;;64.80;60.40;;;;;;;11.81;100.00;102577.33;1806771;79;86264;-83
2022/05/06 00:28:24;;;;;;;60.73;56.43;;;;;;;11.86;100.00;102571.00;1914255;73;85152;-75
2022/05/06 00:34:14;;;;;;;63.23;58.63;;;;;;;11.46;100.00;102579.45;1979281;71;39602;-76
2022/05/06 00:40:00;;;;;;;61.67;57.17;;;;;;;11.45;100.00;102579.69;1831011;76;86230;-81
2022/05/06 00:49:03;;;;;;;65.90;61.53;;;;;;;11.77;100.00;102564.16;1837546;76;86209;-75
2022/05/06 00:54:49;;;;;;;60.50;56.00;;;;;;;11.78;100.00;102564.46;1869960;75;85249;-76
2022/05/06 01:00:32;;;;;;;58.10;54.10;;;;;;;11.56;100.00;102558.74;1801126;77;86374;-78
2022/05/06 01:06:18;;;;;;;60.00;55.80;;;;;;;11.09;100.00;102565.06;1981138;71;39624;-82
2022/05/06 01:12:03;;;;;;;61.40;57.10;;;;;;;11.34;100.00;102578.09;1843332;76;84842;-75
2022/05/06 01:17:48;;;;;;;60.50;56.23;;;;;;;11.46;100.00;102574.42;1882822;73;85354;-75
2022/05/06 01:23:37;;;;;;;61.00;56.50;;;;;;;11.39;100.00;102570.38;1860162;76;86701;-82
2022/05/06 01:29:23;;;;;;;60.40;56.00;;;;;;;11.33;100.00;102571.40;1919766;72;86030;-74
2022/05/06 01:35:11;;;;;;;55.00;51.30;;;;;;;10.97;100.00;102576.77;1979772;71;39541;-77
2022/05/06 01:41:00;;;;;;;59.07;55.00;;;;;;;10.59;100.00;102573.16;1853118;76;86589;-81
2022/05/06 01:46:48;;;;;;;60.43;56.23;;;;;;;10.50;100.00;102575.47;1880395;73;86448;-77
2022/05/06 01:52:34;;;;;;;57.47;53.47;;;;;;;10.57;100.00;102573.94;1802751;77;85837;-73
2022/05/06 01:58:20;;;;;;;59.97;55.57;;;;;;;10.63;100.00;102570.19;1929026;71;39638;-83
2022/05/06 02:10:08;;;;;;;60.33;56.03;;;;;;;10.71;100.00;102571.74;1812283;78;85963;-76
2022/05/06 02:15:52;;;;;;;63.23;58.73;;;;;;;10.93;100.00;102570.01;1909631;74;85399;-78
2022/05/06 02:21:37;;;;;;;59.97;55.83;;;;;;;10.83;100.00;102573.95;1803599;77;85389;-76
2022/05/06 02:27:22;;;;;;;58.27;54.10;;;;;;;10.77;100.00;102578.58;1912308;74;86490;-75
2022/05/06 02:33:23;;;;;;;61.20;56.83;;;;;;;10.72;100.00;102576.22;1811732;78;85390;-75
2022/05/06 02:39:00;;;;;;;60.40;55.80;;;;;;;10.59;100.00;102577.87;1844138;76;86347;-75
2022/05/06 02:47:58;;;;;;;61.37;57.00;;;;;;;10.50;100.00;102588.50;1982315;70;86672;-76
2022/05/06 02:53:42;;;;;;;60.10;55.73;;;;;;;10.72;100.00;102588.19;1886436;73;86286;-76
2022/05/06 02:59:31;;;;;;;58.33;54.23;;;;;;;10.54;100.00;102589.71;1925246;71;85990;-77
2022/05/06 03:05:14;;;;;;;58.23;54.03;;;;;;;10.72;100.00;102591.51;1956647;71;39527;-77
2022/05/06 03:11:01;;;;;;;59.60;55.40;;;;;;;10.78;100.00;102588.58;1945682;72;85563;-76
2022/05/06 03:16:46;;;;;;;59.83;55.57;;;;;;;10.90;100.00;102594.14;1873240;75;85535;-85
2022/05/06 03:22:33;;;;;;;61.50;57.00;;;;;;;10.54;100.00;102600.83;1804888;76;86172;-84
2022/05/06 03:28:17;;;;;;;57.37;53.17;;;;;;;10.37;100.00;102591.52;1976203;71;39581;-76
2022/05/06 03:34:03;;;;;;;58.13;53.67;;;;;;;10.19;100.00;102595.80;1837124;76;86382;-83
2022/05/06 03:39:47;;;;;;;56.17;52.27;;;;;;;9.79;100.00;102588.12;1904407;74;86039;-75
2022/05/06 03:45:32;;;;;;;56.43;52.67;;;;;;;9.79;100.00;102594.21;1808565;77;86645;-76
2022/05/06 03:51:22;;;;;;;57.50;53.40;;;;;;;9.97;100.00;102596.34;1985469;71;39419;-78
2022/05/06 03:57:08;;;;;;;59.53;55.13;;;;;;;9.98;100.00;102606.37;1898476;74;85322;-84
2022/05/06 04:02:51;;;;;;;59.80;55.30;;;;;;;10.61;100.00;102595.98;1799677;77;86723;-84
2022/05/06 04:08:36;;;;;;;63.90;58.87;;;;;;;10.42;100.00;102600.84;1873289;75;86277;-84
2022/05/06 04:14:20;;;;;;;67.97;62.50;;;;;;;10.62;100.00;102586.56;1845636;75;86264;-76
2022/05/06 04:26:01;;;;;;;64.40;58.90;;;;;;;10.80;100.00;102591.12;1847985;76;86640;-75
2022/05/06 04:31:45;;;;;;;63.07;57.77;;;;;;;10.55;100.00;102590.02;1889784;74;86188;-75
2022/05/06 04:37:33;;;;;;;63.97;58.57;;;;;;;10.69;100.00;102588.69;1860640;76;86167;-82
2022/05/06 04:43:20;;;;;;;66.50;61.10;;;;;;;10.74;100.00;102590.73;1978896;71;39690;-75
2022/05/06 04:49:04;;;;;;;66.40;60.87;;;;;;;10.55;100.00;102612.25;1842839;76;86054;-78
2022/05/06 04:54:49;;;;;;;63.83;58.33;;;;;;;10.69;100.00;102602.58;1829812;76;86292;-75
2022/05/06 05:00:32;;;;;;;66.43;60.80;;;;;;;10.76;100.00;102617.73;1858914;75;85325;-75
2022/05/06 05:06:18;;;;;;;68.63;62.67;;;;;;;10.78;100.00;102614.17;1984294;71;39552;-84
2022/05/06 05:12:03;;;;;;;63.03;57.63;;;;;;;10.91;100.00;102614.73;1825783;75;86570;-77
2022/05/06 05:17:50;;;;;;;69.03;63.40;;;;;;;11.01;100.00;102628.56;1805214;78;86055;-80
2022/05/06 05:23:35;;;;;;;64.93;59.40;;;;;;;11.01;100.00;102637.75;1805478;77;86384;-74
2022/05/06 05:29:19;;;;;;;66.60;60.53;;;;;;;11.03;100.00;102648.10;1977840;71;39481;-84
2022/05/06 05:35:02;;;;;;;67.20;61.23;;;;;;;11.22;100.00;102641.81;1841599;75;86088;-77
2022/05/06 05:40:47;;;;;;;66.17;60.30;;;;;;;11.52;100.00;102628.52;1890146;74;85929;-75
2022/05/06 05:52:33;;;;;;;66.53;60.60;;;;;;;11.78;100.00;102632.13;1803442;77;85519;-79
2022/05/06 05:58:18;;;;;;;69.47;63.53;;;;;;;11.84;100.00;102637.27;1956780;72;39509;-83
2022/05/06 06:04:01;;;;;;;68.83;62.97;;;;;;;11.89;100.00;102635.97;1825378;75;86462;-80
2022/05/06 06:09:45;;;;;;;72.97;67.07;;;;;;;11.95;100.00;102641.06;1870514;75;85945;-81
2022/05/06 06:15:30;;;;;;;74.60;68.07;;;;;;;12.03;100.00;102640.09;1868145;75;86151;-77
2022/05/06 06:21:13;;;;;;;76.23;70.03;;;;;;;12.07;100.00;102648.25;1979633;71;39666;-86
2022/05/06 06:27:00;;;;;;;75.87;69.87;;;;;;;12.11;100.00;102641.08;1882690;75;86384;-81
2022/05/06 06:32:44;;;;;;;73.60;67.83;;;;;;;12.13;100.00;102636.66;1903962;73;86197;-75
2022/05/06 06:38:28;;;;;;;72.97;66.83;;;;;;;12.14;100.00;102635.56;1913131;74;86279;-90
2022/05/06 06:44:13;;;;;;;75.80;70.03;;;;;;;12.25;100.00;102641.05;1985145;71;39568;-77
2022/05/06 06:50:01;;;;;;;74.90;68.57;;;;;;;12.33;100.00;102633.66;1824258;76;85404;-79
2022/05/06 06:55:46;;;;;;;71.27;65.47;;;;;;;12.51;100.00;102631.71;1908440;74;85793;-76
2022/05/06 07:01:29;;;;;;;72.87;67.00;;;;;;;12.66;100.00;102643.11;1914258;72;86394;-79
2022/05/06 07:13:18;;;;;;;70.90;65.00;;;;;;;12.93;100.00;102624.53;1981040;71;39562;-78
2022/05/06 07:19:03;;;;;;;70.20;64.67;;;;;;;13.03;100.00;102630.80;1816736;76;86233;-76
2022/05/06 07:24:47;;;;;;;70.30;64.53;;;;;;;13.17;100.00;102624.62;1898542;73;86090;-76
2022/05/06 07:30:33;;;;;;;70.60;65.10;;;;;;;13.33;100.00;102623.41;1801478;77;86451;-79
2022/05/06 07:36:17;;;;;;;67.13;61.93;;;;;;;13.61;100.00;102618.43;1985615;71;39589;-79
2022/05/06 07:42:05;;;;;;;65.10;60.03;;;;;;;14.11;100.00;102612.52;1952494;72;86284;-84
2022/05/06 07:47:50;;;;;;;68.40;63.47;;;;;;;14.57;100.00;102598.37;1799174;78;86132;-78
2022/05/06 07:53:35;;;;;;;67.73;63.03;;;;;;;15.11;100.00;102577.09;1808521;77;86403;-76
2022/05/06 07:59:18;;;;;;;60.87;56.67;;;;;;;14.93;100.00;102577.02;1977855;71;39583;-77
2022/05/06 08:05:03;;;;;;;60.63;56.43;;;;;;;15.49;100.00;102567.41;1825515;75;86089;-79
2022/05/06 08:10:47;;;;;;;57.77;53.83;;;;;;;15.86;100.00;102567.25;1905669;73;86278;-77
2022/05/06 08:16:31;;;;;;;55.53;51.93;;;;;;;16.10;100.00;102568.36;1859055;76;85472;-81
2022/05/06 08:22:16;;;;;;;55.60;52.00;;;;;;;16.47;100.00;102563.02;1985609;71;39602;-77
2022/05/06 08:28:04;;;;;;;57.37;53.47;;;;;;;16.66;100.00;102559.34;1835503;76;86376;-78
2022/05/06 08:33:51;;;;;;;56.87;52.97;;;;;;;16.62;100.00;102555.43;1796051;78;86225;-84
2022/05/06 08:39:42;;;;;;;56.53;52.70;;;;;;;16.43;100.00;102557.70;1806422;77;86572;-79
2022/05/06 08:51:36;;;;;;;54.50;50.63;;;;;;;17.20;100.00;102548.17;1871681;74;86382;-81
2022/05/06 08:57:20;;;;;;;52.00;48.33;;;;;;;17.50;100.00;102546.34;1957435;71;39386;-90
2022/05/06 09:03:07;;;;;;;48.63;45.60;;;;;;;17.49;100.00;102541.85;1810945;78;86508;-85
2022/05/06 09:09:05;;;;;;;41.90;39.10;;;;;;;17.60;100.00;102530.27;1838582;76;86088;-82
2022/05/06 09:21:14;;;;;;;42.97;40.33;;;;;;;17.81;100.00;102530.95;1855101;76;86468;-79
2022/05/06 09:27:04;;;;;;;42.80;39.97;;;;;;;17.81;100.00;102531.52;1892509;74;86227;-88
2022/05/06 09:32:51;;;;;;;42.57;40.07;;;;;;;18.20;100.00;102530.33;1795493;78;86254;-86
2022/05/06 09:38:36;;;;;;;42.23;39.63;;;;;;;18.39;100.00;102533.82;1867189;74;85978;-80
2022/05/06 09:44:37;;;;;;;41.50;38.97;;;;;;;18.49;100.00;102533.69;1934626;73;86596;-82
2022/05/06 09:50:37;;;;;;;39.47;37.13;;;;;;;18.24;100.00;102519.89;1912805;72;85652;-80
2022/05/06 09:56:25;;;;;;;37.73;35.37;;;;;;;18.36;100.00;102509.91;1910664;72;86572;-82
2022/05/06 10:02:12;;;;;;;37.70;35.40;;;;;;;18.57;100.00;102509.98;1979219;71;39586;-82
2022/05/06 10:08:03;;;;;;;36.47;34.27;;;;;;;18.59;100.00;102515.33;1854241;76;86066;-80
2022/05/06 10:13:53;;;;;;;33.10;31.20;;;;;;;18.73;100.00;102511.23;1807565;78;86184;-83
2022/05/06 10:19:49;;;;;;;33.57;31.43;;;;;;;18.80;100.00;102515.92;1906471;73;86458;-83
2022/05/06 10:25:55;;;;;;;30.97;29.20;;;;;;;18.91;100.00;102511.86;1866353;75;85282;-83
2022/05/06 10:38:26;;;;;;;23.93;22.20;;;;;;;18.90;100.00;102499.75;1949406;71;86057;-82
2022/05/06 10:44:39;;;;;;;23.17;21.63;;;;;;;19.06;100.00;102501.22;1973815;71;39556;-80
2022/05/06 10:51:24;;;;;;;20.37;19.27;;;;;;;19.16;100.00;102496.02;1953591;72;85443;-79
2022/05/06 10:57:11;;;;;;;20.40;19.30;;;;;;;19.30;100.00;102498.90;1978059;71;39532;-80
2022/05/06 11:03:03;;;;;;;19.00;18.00;;;;;;;19.44;100.00;102492.81;1842437;76;85629;-77
2022/05/06 11:08:50;;;;;;;18.77;17.67;;;;;;;19.76;100.00;102489.20;1801438;78;86311;-80
2022/05/06 11:14:35;;;;;;;19.03;18.03;;;;;;;19.57;100.00;102479.92;1867533;75;86009;-80
2022/05/06 11:20:33;;;;;;;15.57;14.73;;;;;;;19.48;100.00;102477.80;1866696;76;86503;-78
2022/05/06 11:26:26;;;;;;;14.23;13.43;;;;;;;19.81;100.00;102465.97;1980739;71;39651;-79
2022/05/06 11:32:18;;;;;;;13.37;12.57;;;;;;;19.74;100.00;102462.72;1917324;72;39592;-78
2022/05/06 11:38:06;;;;;;;14.00;13.07;;;;;;;20.00;100.00;102465.36;1810359;78;85924;-82
2022/05/06 11:43:51;;;;;;;14.20;13.30;;;;;;;19.97;100.00;102463.73;1807988;78;86650;-83
2022/05/06 11:49:37;;;;;;;13.67;12.67;;;;;;;20.17;100.00;102459.69;1855711;76;86211;-86
2022/05/06 11:55:21;;;;;;;13.63;12.80;;;;;;;20.28;100.00;102452.12;1827635;77;86417;-83
2022/05/06 12:01:06;;;;;;;13.53;12.70;;;;;;;20.42;100.00;102456.40;1799723;78;86670;-83
2022/05/06 12:06:52;;;;;;;13.97;12.97;;;;;;;20.35;100.00;102455.98;1796149;78;86422;-83
2022/05/06 12:12:38;;;;;;;13.57;12.67;;;;;;;20.43;100.00;102450.45;1858401;76;86108;-84
2022/05/06 12:18:30;;;;;;;13.60;12.77;;;;;;;20.54;100.00;102449.65;1869067;75;86165;-78
2022/05/06 12:24:13;;;;;;;13.07;12.27;;;;;;;20.57;100.00;102445.38;1980884;71;39500;-86
2022/05/06 12:30:00;;;;;;;13.40;12.60;;;;;;;20.51;100.00;102436.17;1848537;76;86341;-80
2022/05/06 12:36:00;;;;;;;13.20;12.50;;;;;;;20.80;100.00;102437.24;1839608;76;86092;-79
2022/05/06 12:42:00;;;;;;;12.50;11.93;;;;;;;20.89;100.00;102433.36;1851038;75;86300;-81
2022/05/06 12:53:46;;;;;;;12.70;11.90;;;;;;;20.88;100.00;102426.03;1883213;74;86252;-80
2022/05/06 12:59:34;;;;;;;12.63;11.90;;;;;;;20.83;100.00;102416.28;1873335;75;85479;-84
2022/05/06 13:05:19;;;;;;;12.47;11.77;;;;;;;20.93;100.00;102412.37;1975559;71;39657;-79
2022/05/06 13:11:06;;;;;;;13.20;12.20;;;;;;;20.94;100.00;102408.97;1812687;78;85296;-84
2022/05/06 13:16:50;;;;;;;12.30;11.70;;;;;;;20.92;100.00;102405.64;1807410;78;86427;-80
2022/05/06 13:22:38;;;;;;;12.77;12.07;;;;;;;20.83;100.00;102403.58;1806523;77;86033;-79
2022/05/06 13:28:24;;;;;;;12.37;11.63;;;;;;;20.84;100.00;102406.63;1862431;76;86612;-79
2022/05/06 13:34:09;;;;;;;12.67;11.97;;;;;;;21.07;100.00;102397.64;1978486;71;39631;-79
2022/05/06 13:39:56;;;;;;;12.97;12.37;;;;;;;21.18;100.00;102401.91;1836147;76;86224;-83
2022/05/06 13:45:41;;;;;;;14.20;13.30;;;;;;;21.07;100.00;102401.03;1872641;75;86122;-79
2022/05/06 13:48:32;;;;;;;13.35;12.75;;;;;;;20.95;100.00;102394.53;1818329;75;938670;-80
2022/05/06 13:54:17;;;;;;;13.03;12.23;;;;;;;21.11;100.00;102395.84;1928773;71;39790;-78
2022/05/06 14:00:03;;;;;;;12.90;12.30;;;;;;;21.07;100.00;102393.97;1851152;76;86236;-81
2022/05/06 14:05:48;;;;;;;13.03;12.43;;;;;;;21.41;100.00;102382.98;1884332;73;86073;-79
2022/05/06 14:08:17;;;;;;;13.08;12.15;;;;;;;;;;1848008;75;938858;-82
2022/05/06 14:14:04;;;;;;;13.62;12.93;;;;;;;21.32;100.00;102380.09;1831746;76;85731;-79
2022/05/06 14:19:53;;;;;;;12.85;12.13;;;;;;;21.35;100.00;102365.87;1797408;78;86225;-80
2022/05/06 14:25:42;;;;;;;12.53;11.93;;;;;;;21.26;100.00;102359.35;1892009;73;86577;-79
2022/05/06 14:31:27;;;;;;;13.08;12.47;;;;;;;21.38;100.00;102361.59;1923038;73;86076;-82
2022/05/06 14:37:11;;;;;;;12.73;12.13;;;;;;;21.58;100.00;102363.30;1980848;71;39655;-83
2022/05/06 14:42:59;;;;;;;12.90;12.00;;;;;;;21.28;100.00;102357.02;1840973;76;86189;-81
2022/05/06 14:48:44;;;;;;;12.83;12.13;;;;;;;21.25;100.00;102352.02;1880362;74;86585;-78
2022/05/06 14:57:52;;;;;;;11.93;11.23;;;;;;;21.13;100.00;102344.70;1823257;78;86182;-82
2022/05/06 15:03:38;;;;;;;12.15;11.30;;;;;;;21.15;100.00;102350.84;1885009;73;86145;-83
2022/05/06 15:09:22;;;;;;;12.37;11.53;;;;;;;21.17;100.00;102347.14;1824571;77;85855;-80
2022/05/06 15:15:08;;;;;;;13.30;12.20;;;;;;;21.11;100.00;102354.03;1804081;78;85860;-77
2022/05/06 15:20:53;;;;;;;12.37;11.53;;;;;;;21.11;100.00;102352.05;1885053;74;86332;-84
2022/05/06 15:26:37;;;;;;;12.88;11.75;;;;;;;21.17;100.00;102355.05;1837324;77;86617;-76
2022/05/06 15:32:22;;;;;;;12.10;11.30;;;;;;;21.12;100.00;102351.47;1919814;73;86269;-78
2022/05/06 15:38:10;;;;;;;12.63;11.63;;;;;;;21.20;100.00;102352.98;1987642;71;39801;-82
2022/05/06 15:43:55;;;;;;;12.35;11.50;;;;;;;21.10;100.00;102350.94;1884937;74;86007;-84
2022/05/06 15:49:40;;;;;;;12.47;11.57;;;;;;;21.12;100.00;102357.98;1825506;76;85472;-79
2022/05/06 15:55:24;;;;;;;13.35;12.23;;;;;;;21.07;100.00;102360.06;1927326;74;86771;-75
2022/05/06 16:01:07;;;;;;;13.30;12.43;;;;;;;21.13;100.00;102364.48;1876900;74;86269;-79
2022/05/06 16:06:51;;;;;;;15.28;14.07;;;;;;;21.14;100.00;102361.89;1796109;78;86494;-77
2022/05/06 16:12:27;;;;;;;14.95;13.88;;;;;;;21.02;100.00;102367.25;1850229;76;85999;-79
2022/05/06 16:18:33;;;;;;;13.13;12.20;;;;;;;21.06;100.00;102369.69;1974992;71;39711;-80
2022/05/06 16:24:17;;;;;;;14.07;12.85;;;;;;;20.98;100.00;102378.92;1986269;71;39599;-79
2022/05/06 16:30:08;;;;;;;14.65;12.07;;;;;;;20.96;100.00;102379.84;1924439;72;86337;-79
2022/05/06 16:42:04;;;;;;;10.80;10.10;;;;;;;20.71;100.00;102377.03;1843045;75;86428;-76
2022/05/06 16:47:48;;;;;;;11.07;10.57;;;;;;;20.07;100.00;102373.25;1888107;74;85992;-72
2022/05/06 16:53:34;;;;;;;12.80;12.20;;;;;;;19.67;100.00;102374.88;1809956;77;86434;-76
2022/05/06 16:59:20;;;;;;;12.33;11.73;;;;;;;19.48;100.00;102379.14;1974093;71;39546;-79
2022/05/06 17:05:05;;;;;;;12.97;12.47;;;;;;;19.26;100.00;102380.90;1846137;76;85922;-73
2022/05/06 17:10:50;;;;;;;12.97;12.37;;;;;;;19.20;100.00;102390.03;1802217;78;86596;-73
2022/05/06 17:16:34;;;;;;;12.40;11.90;;;;;;;18.94;100.00;102391.56;1801959;77;85573;-75
2022/05/06 17:22:19;;;;;;;12.13;11.53;;;;;;;19.15;100.00;102394.33;1978055;71;39530;-76
2022/05/06 17:28:07;;;;;;;12.53;12.03;;;;;;;19.03;100.00;102401.00;1842656;76;86143;-76
2022/05/06 17:33:52;;;;;;;11.53;11.10;;;;;;;19.32;100.00;102399.41;1797590;78;86776;-73
2022/05/06 17:39:39;;;;;;;12.97;12.47;;;;;;;18.91;100.00;102405.66;1891487;74;85411;-89
2022/05/06 17:45:24;;;;;;;12.00;11.50;;;;;;;18.73;100.00;102403.69;1946601;71;85494;-78
2022/05/06 17:51:08;;;;;;;12.60;12.00;;;;;;;18.52;100.00;102402.25;1927898;71;40270;-78
2022/05/06 17:56:55;;;;;;;12.87;12.20;;;;;;;18.35;100.00;102406.13;1911976;74;86334;-79
2022/05/06 18:02:39;;;;;;;13.37;12.87;;;;;;;18.30;100.00;102403.37;1872864;75;86106;-80
2022/05/06 18:08:27;;;;;;;13.23;12.63;;;;;;;18.30;100.00;102414.62;1911112;74;85828;-72
2022/05/06 18:14:11;;;;;;;13.20;12.60;;;;;;;18.11;100.00;102420.16;1976945;71;39521;-72
2022/05/06 18:19:55;;;;;;;15.67;13.93;;;;;;;18.31;100.00;102412.92;1832469;76;86557;-76
2022/05/06 18:25:40;;;;;;;12.30;11.80;;;;;;;18.42;100.00;102406.02;1892579;75;85530;-85
2022/05/06 18:37:26;;;;;;;14.50;14.00;;;;;;;17.70;100.00;102427.62;1912403;72;86648;-72
2022/05/06 18:43:12;;;;;;;15.03;14.43;;;;;;;17.78;100.00;102426.13;1981411;71;39546;-72
2022/05/06 18:48:58;;;;;;;16.13;15.40;;;;;;;17.53;100.00;102420.71;1972794;71;86367;-73
2022/05/06 18:54:43;;;;;;;17.10;16.40;;;;;;;17.39;100.00;102421.94;1872166;75;86667;-78
2022/05/06 19:00:26;;;;;;;17.10;16.40;;;;;;;17.40;100.00;102423.63;1927575;73;86298;-80
2022/05/06 19:06:13;;;;;;;17.43;16.73;;;;;;;17.35;100.00;102420.85;1986719;71;39542;-77
2022/05/06 19:11:57;;;;;;;17.63;16.93;;;;;;;17.36;100.00;102423.09;1845177;76;85534;-73
2022/05/06 19:17:42;;;;;;;16.90;16.20;;;;;;;17.23;100.00;102424.04;1881258;74;85347;-76
2022/05/06 19:29:43;;;;;;;16.43;15.73;;;;;;;17.13;100.00;102428.88;1880543;75;86247;-72
2022/05/06 19:35:28;;;;;;;15.47;14.73;;;;;;;17.05;100.00;102435.11;1949069;72;85379;-78
2022/05/06 19:41:14;;;;;;;17.17;16.57;;;;;;;17.04;100.00;102440.44;1970943;71;39517;-74
2022/05/06 19:46:59;;;;;;;17.93;17.00;;;;;;;16.88;100.00;102446.72;1831283;76;86254;-73
2022/05/06 19:52:59;;;;;;;18.17;17.37;;;;;;;16.89;100.00;102448.41;1913699;74;85483;-92
2022/05/06 19:58:42;;;;;;;17.50;16.80;;;;;;;16.83;100.00;102455.16;1878951;74;86378;-81
2022/05/06 20:04:26;;;;;;;17.30;16.50;;;;;;;16.76;100.00;102456.05;1922227;73;86579;-86
2022/05/06 20:10:12;;;;;;;17.30;16.50;;;;;;;16.78;100.00;102467.25;1936961;71;39674;-72
2022/05/06 20:15:58;;;;;;;18.40;17.40;;;;;;;16.65;100.00;102465.06;1849787;75;86443;-75
2022/05/06 20:21:43;;;;;;;18.17;17.37;;;;;;;16.66;100.00;102461.13;1824773;76;85612;-77
2022/05/06 20:27:25;;;;;;;18.87;18.00;;;;;;;16.53;100.00;102455.25;1946282;73;86346;-81
2022/05/06 20:33:11;;;;;;;19.63;18.47;;;;;;;16.51;100.00;102461.73;1987043;71;39546;-79
2022/05/06 20:38:56;;;;;;;21.27;20.20;;;;;;;16.32;100.00;102452.53;1844397;76;85493;-80
2022/05/06 20:44:42;;;;;;;21.00;20.00;;;;;;;16.35;100.00;102460.36;1883742;75;85949;-75
2022/05/06 20:50:27;;;;;;;22.33;21.07;;;;;;;16.23;100.00;102462.64;1916041;74;86416;-76
2022/05/06 20:56:11;;;;;;;23.27;22.10;;;;;;;16.14;100.00;102464.90;1940973;71;39671;-81
2022/05/06 21:01:54;;;;;;;23.73;22.63;;;;;;;16.04;100.00;102460.73;1889799;74;85261;-77
2022/05/06 21:07:39;;;;;;;24.57;23.27;;;;;;;16.09;100.00;102461.55;1852016;76;86698;-77
2022/05/06 21:13:24;;;;;;;25.63;24.30;;;;;;;16.02;100.00;102463.81;1932440;73;86098;-75
2022/05/06 21:19:08;;;;;;;28.20;26.57;;;;;;;15.90;100.00;102452.05;1961700;71;39704;-72
2022/05/06 21:24:53;;;;;;;30.40;28.70;;;;;;;15.76;100.00;102442.53;1877733;75;86317;-75
2022/05/06 21:30:38;;;;;;;31.37;29.57;;;;;;;15.79;100.00;102457.37;1803816;77;86408;-75
2022/05/06 21:36:22;;;;;;;34.67;32.80;;;;;;;15.72;100.00;102462.43;1917314;74;86407;-72
2022/05/06 21:42:09;;;;;;;36.43;34.43;;;;;;;15.65;100.00;102460.48;1808925;78;85411;-75
2022/05/06 21:47:53;;;;;;;37.00;35.00;;;;;;;15.62;100.00;102433.00;1883439;74;85450;-76
2022/05/06 21:53:38;;;;;;;41.67;39.37;;;;;;;15.56;100.00;102446.20;1841506;76;86723;-77
2022/05/06 21:59:21;;;;;;;43.50;41.20;;;;;;;15.49;100.00;102460.98;1979231;72;86287;-79
2022/05/06 22:05:12;;;;;;;44.23;41.93;;;;;;;15.48;100.00;102453.73;1796968;78;86401;-74
2022/05/06 22:10:56;;;;;;;49.33;46.73;;;;;;;15.37;100.00;102451.46;1851909;76;86430;-73
2022/05/06 22:16:41;;;;;;;49.80;47.23;;;;;;;15.29;100.00;102445.02;1886426;74;85969;-75
2022/05/06 22:22:25;;;;;;;54.37;51.47;;;;;;;15.15;100.00;102440.22;1923796;74;86477;-72
2022/05/06 22:28:12;;;;;;;54.47;51.47;;;;;;;15.25;100.00;102429.89;1976929;71;39655;-77
2022/05/06 22:39:59;;;;;;;56.40;53.40;;;;;;;15.23;100.00;102418.70;1834926;76;86291;-75
2022/05/06 22:46:04;;;;;;;58.90;55.80;;;;;;;15.12;100.00;102425.39;1908704;73;86358;-77
2022/05/06 22:51:50;;;;;;;57.97;54.87;;;;;;;15.19;100.00;102433.79;1835325;76;86369;-74
2022/05/06 22:57:35;;;;;;;56.53;53.40;;;;;;;15.10;100.00;102439.69;1838391;76;85275;-76
2022/05/06 23:03:19;;;;;;;58.77;55.47;;;;;;;15.17;100.00;102445.84;1978211;71;39674;-73
2022/05/06 23:09:05;;;;;;;58.77;55.37;;;;;;;15.20;100.00;102438.83;1820787;76;86261;-75
2022/05/06 23:14:49;;;;;;;60.70;57.00;;;;;;;15.11;100.00;102433.50;1808414;78;86041;-78
2022/05/06 23:23:55;;;;;;;56.73;52.97;;;;;;;14.75;100.00;102439.02;1877847;74;85677;-71
2022/05/06 23:29:42;;;;;;;57.07;53.17;;;;;;;14.68;100.00;102437.58;1883424;74;86288;-75
2022/05/06 23:35:27;;;;;;;53.80;50.13;;;;;;;14.50;100.00;102441.14;1923270;73;86425;-72
2022/05/06 23:41:11;;;;;;;51.27;47.37;;;;;;;14.35;100.00;102438.28;1983384;71;39518;-84
2022/05/06 23:46:57;;;;;;;52.57;48.90;;;;;;;14.38;100.00;102453.66;1849053;76;85630;-74
2022/05/06 23:52:41;;;;;;;56.00;52.30;;;;;;;14.33;100.00;102458.67;1886799;75;85461;-74
2022/05/06 23:58:28;;;;;;;55.10;51.00;;;;;;;14.35;100.00;102452.27;1884358;76;85590;-77
